createdAt,value
2022-08-05T00:01:27.613Z,2.87
2022-08-05T00:06:33.372Z,2.67
2022-08-05T00:11:47.323Z,2.27
2022-08-05T00:16:52.448Z,2.60
2022-08-05T00:21:56.967Z,2.50
2022-08-05T00:27:00.832Z,2.90
2022-08-05T00:32:13.170Z,2.80
2022-08-05T00:37:17.740Z,2.83
2022-08-05T00:42:34.467Z,3.57
2022-08-05T00:47:56.657Z,3.43
2022-08-05T00:52:59.512Z,3.37
2022-08-05T00:58:02.148Z,4.13
2022-08-05T01:03:07.860Z,4.10
2022-08-05T01:08:42.323Z,4.47
2022-08-05T01:13:59.767Z,4.40
2022-08-05T01:19:56.508Z,4.40
2022-08-05T01:25:41.079Z,4.90
2022-08-05T01:31:08.726Z,5.07
2022-08-05T01:36:16.192Z,4.80
2022-08-05T01:41:25.573Z,4.87
2022-08-05T01:46:42.352Z,4.97
2022-08-05T01:51:51.928Z,5.37
2022-08-05T01:58:11.867Z,4.53
2022-08-05T02:02:28.512Z,5.50
2022-08-05T02:07:33.749Z,5.73
2022-08-05T02:12:55.698Z,7.37
2022-08-05T02:18:30.569Z,7.97
2022-08-05T02:23:40.071Z,7.60
2022-08-05T02:28:45.679Z,7.67
2022-08-05T02:33:57.721Z,7.07
2022-08-05T02:39:04.358Z,6.83
2022-08-05T02:44:13.846Z,6.50
2022-08-05T02:49:17.484Z,6.30
2022-08-05T02:54:34.822Z,5.87
2022-08-05T02:59:48.092Z,5.80
2022-08-05T03:04:55.200Z,3.90
2022-08-05T03:09:57.750Z,5.70
2022-08-05T03:15:00.289Z,6.17
2022-08-05T03:20:03.634Z,6.10
2022-08-05T03:25:31.717Z,6.37
2022-08-05T03:30:33.578Z,6.47
2022-08-05T03:35:41.121Z,6.27
2022-08-05T03:40:48.619Z,6.70
2022-08-05T03:45:58.117Z,7.10
2022-08-05T03:52:38.911Z,7.27
2022-08-05T03:56:46.242Z,8.23
2022-08-05T04:01:51.888Z,9.27
2022-08-05T04:06:55.465Z,9.63
2022-08-05T04:11:59.157Z,12.77
2022-08-05T04:17:03.134Z,14.67
2022-08-05T04:22:09.221Z,16.33
2022-08-05T04:27:15.311Z,17.50
2022-08-05T04:32:20.155Z,16.97
2022-08-05T04:38:02.541Z,19.23
2022-08-05T04:42:56.150Z,19.47
2022-08-05T04:48:04.755Z,19.97
2022-08-05T04:53:08.510Z,18.80
2022-08-05T04:58:13.634Z,19.77
2022-08-05T05:03:22.561Z,18.70
2022-08-05T05:08:26.565Z,19.63
2022-08-05T05:13:43.357Z,19.63
2022-08-05T05:19:08.939Z,19.60
2022-08-05T05:24:09.030Z,18.17
2022-08-05T05:29:14.752Z,20.40
2022-08-05T05:34:21.160Z,20.13
2022-08-05T05:39:26.598Z,21.60
2022-08-05T05:44:37.694Z,21.67
2022-08-05T05:49:45.735Z,20.90
2022-08-05T05:55:13.636Z,20.17
2022-08-05T06:00:19.457Z,20.80
2022-08-05T06:05:22.535Z,21.30
2022-08-05T06:10:25.061Z,20.33
2022-08-05T06:16:30.954Z,17.90
2022-08-05T06:20:54.347Z,17.77
2022-08-05T06:26:12.684Z,16.47
2022-08-05T06:31:21.884Z,17.37
2022-08-05T06:36:25.955Z,15.60
2022-08-05T06:41:28.474Z,16.40
2022-08-05T06:46:37.064Z,17.73
2022-08-05T06:51:40.672Z,17.87
2022-08-05T06:56:54.872Z,16.37
2022-08-05T07:02:06.354Z,15.80
2022-08-05T07:07:08.902Z,13.57
2022-08-05T07:12:31.259Z,14.67
2022-08-05T07:18:02.424Z,13.30
2022-08-05T07:22:56.012Z,13.63
2022-08-05T07:28:03.813Z,13.43
2022-08-05T07:33:15.931Z,13.30
2022-08-05T07:38:32.439Z,11.63
2022-08-05T07:43:37.298Z,11.43
2022-08-05T07:49:01.863Z,10.27
2022-08-05T07:54:02.078Z,10.70
2022-08-05T07:59:04.357Z,10.27
2022-08-05T08:04:10.857Z,8.73
2022-08-05T08:09:13.617Z,8.27
2022-08-05T08:14:19.189Z,8.27
2022-08-05T08:20:44.014Z,8.67
2022-08-05T08:24:51.370Z,7.07
2022-08-05T08:30:06.501Z,7.03
2022-08-05T08:35:17.534Z,6.10
2022-08-05T08:40:22.085Z,7.57
2022-08-05T08:45:29.471Z,5.90
2022-08-05T08:51:03.296Z,5.77
2022-08-05T08:56:03.653Z,5.20
2022-08-05T09:01:11.037Z,5.13
2022-08-05T09:06:21.059Z,5.20
2022-08-05T09:11:52.958Z,5.80
2022-08-05T09:16:49.624Z,5.70
2022-08-05T09:22:22.813Z,4.67
2022-08-05T09:28:03.962Z,5.27
2022-08-05T09:33:02.307Z,4.90
2022-08-05T09:38:16.422Z,4.97
2022-08-05T09:43:41.933Z,4.93
2022-08-05T09:49:03.696Z,4.97
2022-08-05T09:54:09.400Z,4.57
2022-08-05T09:59:17.060Z,5.03
2022-08-05T10:04:19.761Z,4.00
2022-08-05T10:09:45.279Z,3.83
2022-08-05T10:14:47.858Z,4.30
2022-08-05T10:20:04.305Z,4.20
2022-08-05T10:25:14.449Z,4.27
2022-08-05T10:31:19.891Z,4.27
2022-08-05T10:35:40.562Z,4.47
2022-08-05T10:40:49.701Z,4.47
2022-08-05T10:46:06.163Z,4.20
2022-08-05T10:51:22.087Z,4.37
2022-08-05T10:56:30.825Z,4.60
2022-08-05T11:01:55.644Z,4.70
2022-08-05T11:07:01.721Z,4.63
2022-08-05T11:12:04.699Z,4.73
2022-08-05T11:17:58.705Z,3.77
2022-08-05T11:22:54.001Z,4.40
2022-08-05T11:28:11.696Z,4.00
2022-08-05T11:33:43.816Z,3.53
2022-08-05T11:38:51.746Z,3.47
2022-08-05T11:44:04.819Z,3.90
2022-08-05T11:49:13.671Z,3.50
2022-08-05T11:54:34.486Z,3.90
2022-08-05T11:59:49.814Z,3.67
2022-08-05T12:04:59.372Z,3.50
2022-08-05T12:10:09.329Z,4.03
2022-08-05T12:15:38.327Z,4.20
2022-08-05T12:20:42.749Z,4.30
2022-08-05T12:25:56.923Z,4.83
2022-08-05T12:31:02.059Z,4.47
2022-08-05T12:36:08.229Z,4.50
2022-08-05T12:41:16.260Z,4.13
2022-08-05T12:46:29.292Z,3.60
2022-08-05T12:52:13.827Z,3.53
2022-08-05T12:57:09.685Z,3.03
2022-08-05T13:02:15.465Z,3.43
2022-08-05T13:07:41.367Z,3.77
2022-08-05T13:12:51.233Z,2.90
2022-08-05T13:18:00.176Z,3.33
2022-08-05T13:23:07.144Z,3.20
2022-08-05T13:28:10.704Z,2.47
2022-08-05T13:33:14.349Z,2.00
2022-08-05T13:38:36.279Z,2.37
2022-08-05T13:43:54.371Z,1.87
2022-08-05T13:49:01.044Z,1.93
2022-08-05T13:54:03.731Z,2.23
2022-08-05T13:59:20.132Z,2.10
2022-08-05T14:04:42.737Z,2.20
2022-08-05T14:09:52.576Z,2.10
2022-08-05T14:14:56.112Z,2.30
2022-08-05T14:20:04.652Z,2.60
2022-08-05T14:25:21.657Z,2.50
2022-08-05T14:30:26.400Z,2.00
2022-08-05T14:35:37.226Z,1.87
2022-08-05T14:40:51.746Z,1.90
2022-08-05T14:45:54.266Z,2.00
2022-08-05T14:50:56.635Z,1.83
2022-08-05T14:55:59.302Z,2.00
2022-08-05T15:01:02.046Z,1.73
2022-08-05T15:06:07.402Z,1.50
2022-08-05T15:11:16.192Z,1.00
2022-08-05T15:16:18.704Z,1.10
2022-08-05T15:21:21.528Z,1.10
2022-08-05T15:26:32.182Z,1.03
2022-08-05T15:31:35.152Z,1.23
2022-08-05T15:36:38.061Z,1.10
2022-08-05T15:41:58.083Z,1.10
2022-08-05T15:47:01.723Z,1.20
2022-08-05T15:52:16.603Z,1.10
2022-08-05T15:57:26.906Z,1.50
2022-08-05T16:02:36.387Z,1.37
2022-08-05T16:07:38.957Z,1.40
2022-08-05T16:12:49.043Z,1.23
2022-08-05T16:17:57.504Z,1.37
2022-08-05T16:23:00.932Z,1.00
2022-08-05T16:28:06.396Z,1.37
2022-08-05T16:33:12.069Z,1.10
2022-08-05T16:38:24.255Z,1.10
2022-08-05T16:43:29.044Z,0.90
2022-08-05T16:48:33.500Z,0.90
2022-08-05T16:54:04.084Z,0.80
2022-08-05T16:59:07.574Z,0.70
2022-08-05T17:04:10.824Z,0.60
2022-08-05T17:09:13.211Z,0.90
2022-08-05T17:14:34.172Z,0.63
2022-08-05T17:19:37.178Z,0.67
2022-08-05T17:24:40.936Z,0.50
2022-08-05T17:29:52.780Z,0.70
2022-08-05T17:35:02.559Z,0.60
2022-08-05T17:40:10.303Z,0.80
2022-08-05T17:45:20.309Z,0.67
2022-08-05T17:50:29.600Z,0.60
2022-08-05T17:55:38.449Z,0.60
2022-08-05T18:00:47.904Z,0.73
2022-08-05T18:05:54.268Z,0.90
2022-08-05T18:10:56.955Z,0.80
2022-08-05T18:15:59.545Z,0.70
2022-08-05T18:21:02.951Z,0.67
2022-08-05T18:26:05.927Z,0.70
2022-08-05T18:31:10.192Z,0.70
2022-08-05T18:36:15.071Z,0.90
2022-08-05T18:41:56.033Z,0.70
2022-08-05T18:46:41.071Z,0.80
2022-08-05T18:52:08.617Z,0.73
2022-08-05T18:57:15.433Z,0.70
2022-08-05T19:02:27.732Z,0.70
2022-08-05T19:07:42.334Z,0.70
2022-08-05T19:12:49.089Z,0.80
2022-08-05T19:18:09.559Z,0.90
2022-08-05T19:24:03.774Z,0.90
2022-08-05T19:28:37.496Z,1.00
2022-08-05T19:33:48.324Z,0.70
2022-08-05T19:39:01.530Z,0.60
2022-08-05T19:44:13.685Z,0.70
2022-08-05T19:49:17.800Z,0.80
2022-08-05T19:54:22.831Z,0.90
2022-08-05T20:00:00.675Z,0.70
2022-08-05T20:04:59.007Z,0.90
2022-08-05T20:10:04.908Z,0.87
2022-08-05T20:15:48.815Z,1.10
2022-08-05T20:20:47.049Z,0.77
2022-08-05T20:25:49.475Z,1.00
2022-08-05T20:30:54.750Z,0.70
2022-08-05T20:35:57.492Z,0.80
2022-08-05T20:41:01.270Z,0.83
2022-08-05T20:46:12.521Z,0.90
2022-08-05T20:51:20.981Z,0.70
2022-08-05T20:56:31.833Z,1.30
2022-08-05T21:01:38.456Z,1.13
2022-08-05T21:06:45.236Z,1.00
2022-08-05T21:12:10.395Z,0.93
2022-08-05T21:17:10.705Z,0.93
2022-08-05T21:22:13.218Z,1.10
2022-08-05T21:27:16.901Z,1.20
2022-08-05T21:32:20.019Z,0.87
2022-08-05T21:37:22.753Z,0.90
2022-08-05T21:42:40.838Z,1.20
2022-08-05T21:47:56.846Z,1.10
2022-08-05T21:53:16.040Z,1.30
2022-08-05T21:58:19.936Z,1.20
2022-08-05T22:03:48.473Z,1.10
2022-08-05T22:08:51.823Z,1.20
2022-08-05T22:14:05.961Z,1.10
2022-08-05T22:20:01.964Z,1.00
2022-08-05T22:24:57.926Z,1.40
2022-08-05T22:30:01.535Z,1.27
2022-08-05T22:35:04.204Z,1.30
2022-08-05T22:40:07.948Z,1.63
2022-08-05T22:45:11.521Z,1.30
2022-08-05T22:50:20.707Z,1.10
2022-08-05T22:55:26.120Z,1.07
2022-08-05T23:00:28.673Z,1.30
2022-08-05T23:05:36.008Z,1.23
2022-08-05T23:10:39.259Z,1.13
2022-08-05T23:15:41.552Z,1.13
2022-08-05T23:20:45.520Z,1.40
2022-08-05T23:25:54.931Z,1.10
2022-08-05T23:31:15.756Z,1.40
2022-08-05T23:36:19.118Z,1.20
2022-08-05T23:41:21.981Z,1.40
2022-08-05T23:46:26.432Z,1.10
2022-08-05T23:51:53.947Z,1.40
2022-08-05T23:57:03.982Z,1.30
